sensor_id;sensor_type;location;lat;lon;timestamp;temperature;humidity
12481;DHT22;6305;48.398;11.762;2023-02-04T00:02:10;5.00;99.90
12481;DHT22;6305;48.398;11.762;2023-02-04T00:04:38;5.00;99.90
12481;DHT22;6305;48.398;11.762;2023-02-04T00:07:05;5.00;99.90
12481;DHT22;6305;48.398;11.762;2023-02-04T00:09:32;5.00;99.90
12481;DHT22;6305;48.398;11.762;2023-02-04T00:11:59;5.00;99.90
12481;DHT22;6305;48.398;11.762;2023-02-04T00:14:26;5.00;99.90
12481;DHT22;6305;48.398;11.762;2023-02-04T00:16:53;5.00;99.90
12481;DHT22;6305;48.398;11.762;2023-02-04T00:19:20;5.00;99.90
12481;DHT22;6305;48.398;11.762;2023-02-04T00:21:49;5.00;99.90
12481;DHT22;6305;48.398;11.762;2023-02-04T00:24:16;5.00;99.90
12481;DHT22;6305;48.398;11.762;2023-02-04T00:26:43;5.00;99.90
12481;DHT22;6305;48.398;11.762;2023-02-04T00:29:10;5.00;99.90
12481;DHT22;6305;48.398;11.762;2023-02-04T00:31:37;5.00;99.90
12481;DHT22;6305;48.398;11.762;2023-02-04T00:34:04;5.00;99.90
12481;DHT22;6305;48.398;11.762;2023-02-04T00:36:31;4.90;99.90
12481;DHT22;6305;48.398;11.762;2023-02-04T00:38:59;4.90;99.90
12481;DHT22;6305;48.398;11.762;2023-02-04T00:41:26;4.90;99.90
12481;DHT22;6305;48.398;11.762;2023-02-04T00:43:53;4.90;99.90
12481;DHT22;6305;48.398;11.762;2023-02-04T00:46:23;4.90;99.90
12481;DHT22;6305;48.398;11.762;2023-02-04T00:48:50;4.80;99.90
12481;DHT22;6305;48.398;11.762;2023-02-04T00:51:17;4.80;99.90
12481;DHT22;6305;48.398;11.762;2023-02-04T00:53:45;4.70;99.90
12481;DHT22;6305;48.398;11.762;2023-02-04T00:56:13;4.70;99.90
12481;DHT22;6305;48.398;11.762;2023-02-04T00:58:40;4.60;99.90
12481;DHT22;6305;48.398;11.762;2023-02-04T01:01:07;4.50;99.90
12481;DHT22;6305;48.398;11.762;2023-02-04T01:03:34;4.50;99.90
12481;DHT22;6305;48.398;11.762;2023-02-04T01:06:01;4.50;99.90
12481;DHT22;6305;48.398;11.762;2023-02-04T01:08:28;4.40;99.90
12481;DHT22;6305;48.398;11.762;2023-02-04T01:10:54;4.40;99.90
12481;DHT22;6305;48.398;11.762;2023-02-04T01:13:23;4.40;99.90
12481;DHT22;6305;48.398;11.762;2023-02-04T01:15:50;4.30;99.90
12481;DHT22;6305;48.398;11.762;2023-02-04T01:18:17;4.30;99.90
12481;DHT22;6305;48.398;11.762;2023-02-04T01:20:44;4.30;99.90
12481;DHT22;6305;48.398;11.762;2023-02-04T01:23:11;4.30;99.90
12481;DHT22;6305;48.398;11.762;2023-02-04T01:25:38;4.20;99.90
12481;DHT22;6305;48.398;11.762;2023-02-04T01:28:05;4.20;99.90
12481;DHT22;6305;48.398;11.762;2023-02-04T01:30:34;4.20;99.90
12481;DHT22;6305;48.398;11.762;2023-02-04T01:33:01;4.10;99.90
12481;DHT22;6305;48.398;11.762;2023-02-04T01:35:28;4.10;99.90
12481;DHT22;6305;48.398;11.762;2023-02-04T01:37:55;4.00;99.90
12481;DHT22;6305;48.398;11.762;2023-02-04T01:40:23;4.00;99.90
12481;DHT22;6305;48.398;11.762;2023-02-04T01:42:50;4.00;99.90
12481;DHT22;6305;48.398;11.762;2023-02-04T01:45:17;4.10;99.90
12481;DHT22;6305;48.398;11.762;2023-02-04T01:47:46;4.10;99.90
12481;DHT22;6305;48.398;11.762;2023-02-04T01:50:15;4.10;99.90
12481;DHT22;6305;48.398;11.762;2023-02-04T01:52:43;4.10;99.90
12481;DHT22;6305;48.398;11.762;2023-02-04T01:55:13;4.10;99.90
12481;DHT22;6305;48.398;11.762;2023-02-04T01:57:41;4.20;99.90
12481;DHT22;6305;48.398;11.762;2023-02-04T02:00:14;4.20;99.90
12481;DHT22;6305;48.398;11.762;2023-02-04T02:02:46;4.20;99.90
12481;DHT22;6305;48.398;11.762;2023-02-04T02:05:16;4.20;99.90
12481;DHT22;6305;48.398;11.762;2023-02-04T02:07:46;4.20;99.90
12481;DHT22;6305;48.398;11.762;2023-02-04T02:10:14;4.20;99.90
12481;DHT22;6305;48.398;11.762;2023-02-04T02:12:42;4.10;99.90
12481;DHT22;6305;48.398;11.762;2023-02-04T02:15:10;4.10;99.90
12481;DHT22;6305;48.398;11.762;2023-02-04T02:17:38;4.10;99.90
12481;DHT22;6305;48.398;11.762;2023-02-04T02:20:07;4.10;99.90
12481;DHT22;6305;48.398;11.762;2023-02-04T02:22:38;4.10;99.90
12481;DHT22;6305;48.398;11.762;2023-02-04T02:25:12;4.10;99.90
12481;DHT22;6305;48.398;11.762;2023-02-04T02:27:42;4.10;99.90
12481;DHT22;6305;48.398;11.762;2023-02-04T02:30:10;4.10;99.90
12481;DHT22;6305;48.398;11.762;2023-02-04T02:32:38;4.10;99.90
12481;DHT22;6305;48.398;11.762;2023-02-04T02:35:06;4.00;99.90
12481;DHT22;6305;48.398;11.762;2023-02-04T02:37:33;4.00;99.90
12481;DHT22;6305;48.398;11.762;2023-02-04T02:40:00;4.00;99.90
12481;DHT22;6305;48.398;11.762;2023-02-04T02:42:30;4.00;99.90
12481;DHT22;6305;48.398;11.762;2023-02-04T02:44:57;4.00;99.90
12481;DHT22;6305;48.398;11.762;2023-02-04T02:47:25;3.90;99.90
12481;DHT22;6305;48.398;11.762;2023-02-04T02:49:53;3.70;99.90
12481;DHT22;6305;48.398;11.762;2023-02-04T02:52:20;3.60;99.90
12481;DHT22;6305;48.398;11.762;2023-02-04T02:54:49;3.50;99.90
12481;DHT22;6305;48.398;11.762;2023-02-04T02:57:19;3.50;99.90
12481;DHT22;6305;48.398;11.762;2023-02-04T02:59:48;3.40;99.90
12481;DHT22;6305;48.398;11.762;2023-02-04T03:02:17;3.30;99.90
12481;DHT22;6305;48.398;11.762;2023-02-04T03:04:51;3.20;99.90
12481;DHT22;6305;48.398;11.762;2023-02-04T03:07:23;3.20;99.90
12481;DHT22;6305;48.398;11.762;2023-02-04T03:09:50;3.10;99.90
12481;DHT22;6305;48.398;11.762;2023-02-04T03:12:18;3.00;99.90
12481;DHT22;6305;48.398;11.762;2023-02-04T03:14:45;2.90;99.90
12481;DHT22;6305;48.398;11.762;2023-02-04T03:17:14;2.90;99.90
12481;DHT22;6305;48.398;11.762;2023-02-04T03:19:41;2.90;99.90
12481;DHT22;6305;48.398;11.762;2023-02-04T03:22:09;2.90;99.90
12481;DHT22;6305;48.398;11.762;2023-02-04T03:24:37;2.90;99.90
12481;DHT22;6305;48.398;11.762;2023-02-04T03:27:04;2.80;99.90
12481;DHT22;6305;48.398;11.762;2023-02-04T03:29:33;2.70;99.90
12481;DHT22;6305;48.398;11.762;2023-02-04T03:32:00;2.60;99.90
12481;DHT22;6305;48.398;11.762;2023-02-04T03:34:28;2.60;99.90
12481;DHT22;6305;48.398;11.762;2023-02-04T03:36:55;2.60;99.90
12481;DHT22;6305;48.398;11.762;2023-02-04T03:39:22;2.50;99.90
12481;DHT22;6305;48.398;11.762;2023-02-04T03:41:49;2.40;99.90
12481;DHT22;6305;48.398;11.762;2023-02-04T03:44:16;2.40;99.90
12481;DHT22;6305;48.398;11.762;2023-02-04T03:46:45;2.40;99.90
12481;DHT22;6305;48.398;11.762;2023-02-04T03:49:12;2.30;99.90
12481;DHT22;6305;48.398;11.762;2023-02-04T03:51:40;2.30;99.90
12481;DHT22;6305;48.398;11.762;2023-02-04T03:54:07;2.30;99.90
12481;DHT22;6305;48.398;11.762;2023-02-04T03:56:34;2.30;99.90
12481;DHT22;6305;48.398;11.762;2023-02-04T03:59:01;2.40;99.90
12481;DHT22;6305;48.398;11.762;2023-02-04T04:01:28;2.40;99.90
12481;DHT22;6305;48.398;11.762;2023-02-04T04:03:55;2.50;99.90
12481;DHT22;6305;48.398;11.762;2023-02-04T04:06:22;2.60;99.90
12481;DHT22;6305;48.398;11.762;2023-02-04T04:08:51;2.70;99.90
12481;DHT22;6305;48.398;11.762;2023-02-04T04:11:17;2.70;99.90
12481;DHT22;6305;48.398;11.762;2023-02-04T04:13:46;2.80;99.90
12481;DHT22;6305;48.398;11.762;2023-02-04T04:16:13;2.90;99.90
12481;DHT22;6305;48.398;11.762;2023-02-04T04:18:40;2.90;99.90
12481;DHT22;6305;48.398;11.762;2023-02-04T04:21:07;2.90;99.90
12481;DHT22;6305;48.398;11.762;2023-02-04T04:23:34;2.90;99.90
12481;DHT22;6305;48.398;11.762;2023-02-04T04:26:03;3.00;99.90
12481;DHT22;6305;48.398;11.762;2023-02-04T04:28:30;2.90;99.90
12481;DHT22;6305;48.398;11.762;2023-02-04T04:30:56;3.00;99.90
12481;DHT22;6305;48.398;11.762;2023-02-04T04:33:23;2.90;99.90
12481;DHT22;6305;48.398;11.762;2023-02-04T04:35:50;2.90;99.90
12481;DHT22;6305;48.398;11.762;2023-02-04T04:38:17;2.90;99.90
12481;DHT22;6305;48.398;11.762;2023-02-04T04:40:44;2.80;99.90
12481;DHT22;6305;48.398;11.762;2023-02-04T04:43:12;2.70;99.90
12481;DHT22;6305;48.398;11.762;2023-02-04T04:45:39;2.70;99.90
12481;DHT22;6305;48.398;11.762;2023-02-04T04:48:06;2.70;99.90
12481;DHT22;6305;48.398;11.762;2023-02-04T04:50:33;2.80;99.90
12481;DHT22;6305;48.398;11.762;2023-02-04T04:53:00;2.80;99.90
12481;DHT22;6305;48.398;11.762;2023-02-04T04:55:27;2.80;99.90
12481;DHT22;6305;48.398;11.762;2023-02-04T04:57:54;2.80;99.90
12481;DHT22;6305;48.398;11.762;2023-02-04T05:00:22;2.80;99.90
12481;DHT22;6305;48.398;11.762;2023-02-04T05:02:49;2.90;99.90
12481;DHT22;6305;48.398;11.762;2023-02-04T05:05:16;2.90;99.90
12481;DHT22;6305;48.398;11.762;2023-02-04T05:07:43;3.00;99.90
12481;DHT22;6305;48.398;11.762;2023-02-04T05:10:10;3.00;99.90
12481;DHT22;6305;48.398;11.762;2023-02-04T05:12:37;3.00;99.90
12481;DHT22;6305;48.398;11.762;2023-02-04T05:15:05;3.00;99.90
12481;DHT22;6305;48.398;11.762;2023-02-04T05:17:33;3.00;99.90
12481;DHT22;6305;48.398;11.762;2023-02-04T05:20:00;3.00;99.90
12481;DHT22;6305;48.398;11.762;2023-02-04T05:22:27;3.00;99.90
12481;DHT22;6305;48.398;11.762;2023-02-04T05:24:54;3.00;99.90
12481;DHT22;6305;48.398;11.762;2023-02-04T05:27:21;3.00;99.90
12481;DHT22;6305;48.398;11.762;2023-02-04T05:29:48;3.10;99.90
12481;DHT22;6305;48.398;11.762;2023-02-04T05:32:15;3.00;99.90
12481;DHT22;6305;48.398;11.762;2023-02-04T05:34:43;3.00;99.90
12481;DHT22;6305;48.398;11.762;2023-02-04T05:37:11;3.00;99.90
12481;DHT22;6305;48.398;11.762;2023-02-04T05:39:40;3.00;99.90
12481;DHT22;6305;48.398;11.762;2023-02-04T05:42:07;3.00;99.90
12481;DHT22;6305;48.398;11.762;2023-02-04T05:44:34;3.00;99.90
12481;DHT22;6305;48.398;11.762;2023-02-04T05:47:01;3.00;99.90
12481;DHT22;6305;48.398;11.762;2023-02-04T05:49:28;3.00;99.90
12481;DHT22;6305;48.398;11.762;2023-02-04T05:51:56;3.00;99.90
12481;DHT22;6305;48.398;11.762;2023-02-04T05:54:23;3.00;99.90
12481;DHT22;6305;48.398;11.762;2023-02-04T05:56:50;3.10;99.90
12481;DHT22;6305;48.398;11.762;2023-02-04T05:59:17;3.00;99.90
12481;DHT22;6305;48.398;11.762;2023-02-04T06:01:44;3.00;99.90
12481;DHT22;6305;48.398;11.762;2023-02-04T06:04:11;3.00;99.90
12481;DHT22;6305;48.398;11.762;2023-02-04T06:06:40;3.00;99.90
12481;DHT22;6305;48.398;11.762;2023-02-04T06:09:08;3.00;99.90
12481;DHT22;6305;48.398;11.762;2023-02-04T06:11:35;3.00;99.90
12481;DHT22;6305;48.398;11.762;2023-02-04T06:14:02;3.00;99.90
12481;DHT22;6305;48.398;11.762;2023-02-04T06:16:29;3.00;99.90
12481;DHT22;6305;48.398;11.762;2023-02-04T06:18:56;3.10;99.90
12481;DHT22;6305;48.398;11.762;2023-02-04T06:21:23;3.10;99.90
12481;DHT22;6305;48.398;11.762;2023-02-04T06:23:50;3.10;99.90
12481;DHT22;6305;48.398;11.762;2023-02-04T06:26:18;3.10;99.90
12481;DHT22;6305;48.398;11.762;2023-02-04T06:28:45;3.10;99.90
12481;DHT22;6305;48.398;11.762;2023-02-04T06:31:12;3.20;99.90
12481;DHT22;6305;48.398;11.762;2023-02-04T06:33:39;3.20;99.90
12481;DHT22;6305;48.398;11.762;2023-02-04T06:36:07;3.20;99.90
12481;DHT22;6305;48.398;11.762;2023-02-04T06:38:34;3.30;99.90
12481;DHT22;6305;48.398;11.762;2023-02-04T06:41:01;3.30;99.90
12481;DHT22;6305;48.398;11.762;2023-02-04T06:43:29;3.30;99.90
12481;DHT22;6305;48.398;11.762;2023-02-04T06:45:56;3.30;99.90
12481;DHT22;6305;48.398;11.762;2023-02-04T06:48:24;3.30;99.90
12481;DHT22;6305;48.398;11.762;2023-02-04T06:50:53;3.40;99.90
12481;DHT22;6305;48.398;11.762;2023-02-04T06:53:20;3.40;99.90
12481;DHT22;6305;48.398;11.762;2023-02-04T06:55:47;3.40;99.90
12481;DHT22;6305;48.398;11.762;2023-02-04T06:58:14;3.40;99.90
12481;DHT22;6305;48.398;11.762;2023-02-04T07:00:43;3.50;99.90
12481;DHT22;6305;48.398;11.762;2023-02-04T07:03:10;3.60;99.90
12481;DHT22;6305;48.398;11.762;2023-02-04T07:05:37;3.60;99.90
12481;DHT22;6305;48.398;11.762;2023-02-04T07:08:04;3.70;99.90
12481;DHT22;6305;48.398;11.762;2023-02-04T07:10:31;3.70;99.90
12481;DHT22;6305;48.398;11.762;2023-02-04T07:12:58;3.80;99.90
12481;DHT22;6305;48.398;11.762;2023-02-04T07:15:25;3.80;99.90
12481;DHT22;6305;48.398;11.762;2023-02-04T07:17:53;3.80;99.90
12481;DHT22;6305;48.398;11.762;2023-02-04T07:20:20;3.80;99.90
12481;DHT22;6305;48.398;11.762;2023-02-04T07:22:47;3.70;99.90
12481;DHT22;6305;48.398;11.762;2023-02-04T07:25:14;3.90;99.90
12481;DHT22;6305;48.398;11.762;2023-02-04T07:27:42;4.10;99.90
12481;DHT22;6305;48.398;11.762;2023-02-04T07:30:10;4.20;99.90
12481;DHT22;6305;48.398;11.762;2023-02-04T07:32:37;4.20;99.90
12481;DHT22;6305;48.398;11.762;2023-02-04T07:35:06;4.10;99.90
12481;DHT22;6305;48.398;11.762;2023-02-04T07:37:33;4.00;99.90
12481;DHT22;6305;48.398;11.762;2023-02-04T07:40:00;4.00;99.90
12481;DHT22;6305;48.398;11.762;2023-02-04T07:42:27;3.90;99.90
12481;DHT22;6305;48.398;11.762;2023-02-04T07:45:03;3.90;99.90
12481;DHT22;6305;48.398;11.762;2023-02-04T07:47:30;3.90;99.90
12481;DHT22;6305;48.398;11.762;2023-02-04T07:49:57;4.00;99.90
12481;DHT22;6305;48.398;11.762;2023-02-04T07:52:26;4.10;99.90
12481;DHT22;6305;48.398;11.762;2023-02-04T07:54:53;4.10;99.90
12481;DHT22;6305;48.398;11.762;2023-02-04T07:57:20;4.20;99.90
12481;DHT22;6305;48.398;11.762;2023-02-04T07:59:47;4.20;99.90
12481;DHT22;6305;48.398;11.762;2023-02-04T08:02:14;4.10;99.90
12481;DHT22;6305;48.398;11.762;2023-02-04T08:04:41;4.20;99.90
12481;DHT22;6305;48.398;11.762;2023-02-04T08:07:08;4.20;99.90
12481;DHT22;6305;48.398;11.762;2023-02-04T08:09:36;4.30;99.90
12481;DHT22;6305;48.398;11.762;2023-02-04T08:12:04;4.30;99.90
12481;DHT22;6305;48.398;11.762;2023-02-04T08:14:31;4.50;99.90
12481;DHT22;6305;48.398;11.762;2023-02-04T08:16:58;4.60;99.90
12481;DHT22;6305;48.398;11.762;2023-02-04T08:19:25;4.70;99.90
12481;DHT22;6305;48.398;11.762;2023-02-04T08:21:52;4.90;99.90
12481;DHT22;6305;48.398;11.762;2023-02-04T08:24:19;5.10;99.90
12481;DHT22;6305;48.398;11.762;2023-02-04T08:26:47;5.20;99.90
12481;DHT22;6305;48.398;11.762;2023-02-04T08:29:14;5.40;99.90
12481;DHT22;6305;48.398;11.762;2023-02-04T08:31:41;5.60;99.90
12481;DHT22;6305;48.398;11.762;2023-02-04T08:34:08;5.70;99.90
12481;DHT22;6305;48.398;11.762;2023-02-04T08:36:35;5.70;99.90
12481;DHT22;6305;48.398;11.762;2023-02-04T08:39:02;5.70;99.90
12481;DHT22;6305;48.398;11.762;2023-02-04T08:41:29;5.60;99.90
12481;DHT22;6305;48.398;11.762;2023-02-04T08:44:02;5.60;99.90
12481;DHT22;6305;48.398;11.762;2023-02-04T08:46:29;5.50;99.90
12481;DHT22;6305;48.398;11.762;2023-02-04T08:48:56;5.20;99.90
12481;DHT22;6305;48.398;11.762;2023-02-04T08:51:23;4.70;99.90
12481;DHT22;6305;48.398;11.762;2023-02-04T08:53:50;4.40;99.90
12481;DHT22;6305;48.398;11.762;2023-02-04T08:56:17;4.00;99.90
12481;DHT22;6305;48.398;11.762;2023-02-04T08:58:45;3.70;99.90
12481;DHT22;6305;48.398;11.762;2023-02-04T09:01:14;3.50;99.90
12481;DHT22;6305;48.398;11.762;2023-02-04T09:03:44;3.30;99.90
12481;DHT22;6305;48.398;11.762;2023-02-04T09:06:10;3.20;99.90
12481;DHT22;6305;48.398;11.762;2023-02-04T09:08:38;3.20;99.90
12481;DHT22;6305;48.398;11.762;2023-02-04T09:11:05;3.30;99.90
12481;DHT22;6305;48.398;11.762;2023-02-04T09:13:32;3.50;99.90
12481;DHT22;6305;48.398;11.762;2023-02-04T09:15:59;3.60;99.90
12481;DHT22;6305;48.398;11.762;2023-02-04T09:18:27;3.70;99.90
12481;DHT22;6305;48.398;11.762;2023-02-04T09:20:55;3.70;99.90
12481;DHT22;6305;48.398;11.762;2023-02-04T09:23:22;3.90;99.90
12481;DHT22;6305;48.398;11.762;2023-02-04T09:25:49;4.10;99.90
12481;DHT22;6305;48.398;11.762;2023-02-04T09:28:17;4.40;99.90
12481;DHT22;6305;48.398;11.762;2023-02-04T09:30:45;4.70;99.90
12481;DHT22;6305;48.398;11.762;2023-02-04T09:33:14;4.80;99.90
12481;DHT22;6305;48.398;11.762;2023-02-04T09:35:43;4.90;99.90
12481;DHT22;6305;48.398;11.762;2023-02-04T09:38:10;4.80;99.90
12481;DHT22;6305;48.398;11.762;2023-02-04T09:40:42;4.70;99.90
12481;DHT22;6305;48.398;11.762;2023-02-04T09:43:12;4.80;99.90
12481;DHT22;6305;48.398;11.762;2023-02-04T09:45:43;4.90;99.90
12481;DHT22;6305;48.398;11.762;2023-02-04T09:48:12;4.80;99.90
12481;DHT22;6305;48.398;11.762;2023-02-04T09:50:39;4.80;99.90
12481;DHT22;6305;48.398;11.762;2023-02-04T09:53:17;4.80;99.90
12481;DHT22;6305;48.398;11.762;2023-02-04T09:55:47;4.90;99.90
12481;DHT22;6305;48.398;11.762;2023-02-04T09:58:17;5.10;99.90
12481;DHT22;6305;48.398;11.762;2023-02-04T10:00:45;5.20;99.90
12481;DHT22;6305;48.398;11.762;2023-02-04T10:03:14;5.80;99.90
12481;DHT22;6305;48.398;11.762;2023-02-04T10:05:43;6.00;99.90
12481;DHT22;6305;48.398;11.762;2023-02-04T10:08:14;6.00;99.90
12481;DHT22;6305;48.398;11.762;2023-02-04T10:10:42;5.90;99.90
12481;DHT22;6305;48.398;11.762;2023-02-04T10:13:15;5.70;99.90
12481;DHT22;6305;48.398;11.762;2023-02-04T10:15:43;5.50;99.90
12481;DHT22;6305;48.398;11.762;2023-02-04T10:18:14;5.40;99.90
12481;DHT22;6305;48.398;11.762;2023-02-04T10:20:43;5.30;99.90
12481;DHT22;6305;48.398;11.762;2023-02-04T10:23:10;5.50;99.90
12481;DHT22;6305;48.398;11.762;2023-02-04T10:25:39;5.70;99.90
12481;DHT22;6305;48.398;11.762;2023-02-04T10:28:06;6.10;99.90
12481;DHT22;6305;48.398;11.762;2023-02-04T10:30:38;6.40;99.90
12481;DHT22;6305;48.398;11.762;2023-02-04T10:33:13;6.50;99.90
12481;DHT22;6305;48.398;11.762;2023-02-04T10:35:45;6.50;99.90
12481;DHT22;6305;48.398;11.762;2023-02-04T10:38:13;6.50;99.90
12481;DHT22;6305;48.398;11.762;2023-02-04T10:40:43;6.50;99.90
12481;DHT22;6305;48.398;11.762;2023-02-04T10:43:14;6.50;99.90
12481;DHT22;6305;48.398;11.762;2023-02-04T10:45:44;6.40;99.90
12481;DHT22;6305;48.398;11.762;2023-02-04T10:48:17;6.70;99.90
12481;DHT22;6305;48.398;11.762;2023-02-04T10:50:45;6.80;99.90
12481;DHT22;6305;48.398;11.762;2023-02-04T10:53:15;6.70;99.90
12481;DHT22;6305;48.398;11.762;2023-02-04T10:56:02;6.60;99.90
12481;DHT22;6305;48.398;11.762;2023-02-04T10:58:30;6.70;99.90
12481;DHT22;6305;48.398;11.762;2023-02-04T11:00:59;6.80;99.90
12481;DHT22;6305;48.398;11.762;2023-02-04T11:03:28;7.10;99.90
12481;DHT22;6305;48.398;11.762;2023-02-04T11:05:57;7.10;99.90
12481;DHT22;6305;48.398;11.762;2023-02-04T11:08:26;7.20;99.90
12481;DHT22;6305;48.398;11.762;2023-02-04T11:10:55;7.30;99.90
12481;DHT22;6305;48.398;11.762;2023-02-04T11:13:37;7.10;99.90
12481;DHT22;6305;48.398;11.762;2023-02-04T11:16:11;7.10;99.90
12481;DHT22;6305;48.398;11.762;2023-02-04T11:18:47;7.50;99.90
12481;DHT22;6305;48.398;11.762;2023-02-04T11:21:22;7.90;99.90
12481;DHT22;6305;48.398;11.762;2023-02-04T11:23:50;8.00;99.90
12481;DHT22;6305;48.398;11.762;2023-02-04T11:26:32;7.80;99.90
12481;DHT22;6305;48.398;11.762;2023-02-04T11:29:24;7.80;99.90
12481;DHT22;6305;48.398;11.762;2023-02-04T11:32:00;7.60;99.90
12481;DHT22;6305;48.398;11.762;2023-02-04T11:34:47;7.50;99.90
12481;DHT22;6305;48.398;11.762;2023-02-04T11:37:26;7.60;99.90
12481;DHT22;6305;48.398;11.762;2023-02-04T11:39:57;7.90;99.90
12481;DHT22;6305;48.398;11.762;2023-02-04T11:42:30;8.00;99.90
12481;DHT22;6305;48.398;11.762;2023-02-04T11:45:01;8.20;99.90
12481;DHT22;6305;48.398;11.762;2023-02-04T11:47:34;8.30;99.90
12481;DHT22;6305;48.398;11.762;2023-02-04T11:50:04;7.80;99.90
12481;DHT22;6305;48.398;11.762;2023-02-04T11:52:37;7.60;99.90
12481;DHT22;6305;48.398;11.762;2023-02-04T11:55:04;7.40;99.90
12481;DHT22;6305;48.398;11.762;2023-02-04T11:57:38;7.30;99.90
12481;DHT22;6305;48.398;11.762;2023-02-04T12:00:12;7.50;99.90
12481;DHT22;6305;48.398;11.762;2023-02-04T12:02:41;7.60;99.90
12481;DHT22;6305;48.398;11.762;2023-02-04T12:05:11;7.80;99.90
12481;DHT22;6305;48.398;11.762;2023-02-04T12:07:38;8.10;99.90
12481;DHT22;6305;48.398;11.762;2023-02-04T12:10:22;8.60;99.90
12481;DHT22;6305;48.398;11.762;2023-02-04T12:12:51;8.60;99.90
12481;DHT22;6305;48.398;11.762;2023-02-04T12:15:22;8.30;99.90
12481;DHT22;6305;48.398;11.762;2023-02-04T12:18:01;8.00;99.90
12481;DHT22;6305;48.398;11.762;2023-02-04T12:20:28;8.10;99.90
12481;DHT22;6305;48.398;11.762;2023-02-04T12:22:55;9.20;99.90
12481;DHT22;6305;48.398;11.762;2023-02-04T12:25:22;11.70;99.90
12481;DHT22;6305;48.398;11.762;2023-02-04T12:27:49;14.10;95.70
12481;DHT22;6305;48.398;11.762;2023-02-04T12:30:20;16.30;85.80
12481;DHT22;6305;48.398;11.762;2023-02-04T12:32:48;16.80;65.00
12481;DHT22;6305;48.398;11.762;2023-02-04T12:35:15;18.30;61.20
12481;DHT22;6305;48.398;11.762;2023-02-04T12:37:42;20.10;51.50
12481;DHT22;6305;48.398;11.762;2023-02-04T12:40:12;21.80;45.90
12481;DHT22;6305;48.398;11.762;2023-02-04T12:42:39;23.00;43.00
12481;DHT22;6305;48.398;11.762;2023-02-04T12:45:07;22.20;39.50
12481;DHT22;6305;48.398;11.762;2023-02-04T12:47:36;19.70;37.70
12481;DHT22;6305;48.398;11.762;2023-02-04T12:50:03;16.50;41.10
12481;DHT22;6305;48.398;11.762;2023-02-04T12:52:30;14.00;45.00
12481;DHT22;6305;48.398;11.762;2023-02-04T12:54:57;12.00;48.50
12481;DHT22;6305;48.398;11.762;2023-02-04T12:57:25;10.50;52.00
12481;DHT22;6305;48.398;11.762;2023-02-04T12:59:52;9.20;55.10
12481;DHT22;6305;48.398;11.762;2023-02-04T13:02:22;8.40;58.30
12481;DHT22;6305;48.398;11.762;2023-02-04T13:04:50;7.90;61.20
12481;DHT22;6305;48.398;11.762;2023-02-04T13:07:17;7.50;64.20
12481;DHT22;6305;48.398;11.762;2023-02-04T13:09:45;7.20;67.40
12481;DHT22;6305;48.398;11.762;2023-02-04T13:12:13;7.00;70.10
12481;DHT22;6305;48.398;11.762;2023-02-04T13:14:40;6.90;72.80
12481;DHT22;6305;48.398;11.762;2023-02-04T13:17:08;7.10;77.80
12481;DHT22;6305;48.398;11.762;2023-02-04T13:19:35;7.00;75.60
12481;DHT22;6305;48.398;11.762;2023-02-04T13:22:04;6.90;78.50
12481;DHT22;6305;48.398;11.762;2023-02-04T13:24:31;7.00;79.80
12481;DHT22;6305;48.398;11.762;2023-02-04T13:26:58;7.00;80.90
12481;DHT22;6305;48.398;11.762;2023-02-04T13:29:25;7.20;82.00
12481;DHT22;6305;48.398;11.762;2023-02-04T13:31:52;7.40;81.40
12481;DHT22;6305;48.398;11.762;2023-02-04T13:34:19;7.50;80.90
12481;DHT22;6305;48.398;11.762;2023-02-04T13:36:46;7.70;81.40
12481;DHT22;6305;48.398;11.762;2023-02-04T13:39:14;7.80;80.80
12481;DHT22;6305;48.398;11.762;2023-02-04T13:41:41;7.90;81.40
12481;DHT22;6305;48.398;11.762;2023-02-04T13:44:10;7.80;79.10
12481;DHT22;6305;48.398;11.762;2023-02-04T13:46:37;7.60;78.40
12481;DHT22;6305;48.398;11.762;2023-02-04T13:49:04;7.30;78.90
12481;DHT22;6305;48.398;11.762;2023-02-04T13:51:31;7.20;80.40
12481;DHT22;6305;48.398;11.762;2023-02-04T13:53:58;7.10;81.00
12481;DHT22;6305;48.398;11.762;2023-02-04T13:56:26;7.10;80.20
12481;DHT22;6305;48.398;11.762;2023-02-04T13:58:53;7.00;75.60
12481;DHT22;6305;48.398;11.762;2023-02-04T14:01:20;6.80;75.80
12481;DHT22;6305;48.398;11.762;2023-02-04T14:03:47;6.70;77.90
12481;DHT22;6305;48.398;11.762;2023-02-04T14:06:14;6.70;78.50
12481;DHT22;6305;48.398;11.762;2023-02-04T14:08:45;6.80;78.00
12481;DHT22;6305;48.398;11.762;2023-02-04T14:11:12;6.80;77.50
12481;DHT22;6305;48.398;11.762;2023-02-04T14:13:40;7.00;77.80
12481;DHT22;6305;48.398;11.762;2023-02-04T14:16:07;7.20;76.20
12481;DHT22;6305;48.398;11.762;2023-02-04T14:18:34;7.20;75.50
12481;DHT22;6305;48.398;11.762;2023-02-04T14:21:02;7.20;74.70
12481;DHT22;6305;48.398;11.762;2023-02-04T14:23:29;7.10;73.20
12481;DHT22;6305;48.398;11.762;2023-02-04T14:25:56;6.90;73.30
12481;DHT22;6305;48.398;11.762;2023-02-04T14:28:23;6.80;72.90
12481;DHT22;6305;48.398;11.762;2023-02-04T14:30:51;6.70;73.80
12481;DHT22;6305;48.398;11.762;2023-02-04T14:33:19;6.60;75.20
12481;DHT22;6305;48.398;11.762;2023-02-04T14:35:46;6.50;75.40
12481;DHT22;6305;48.398;11.762;2023-02-04T14:38:13;6.30;75.30
12481;DHT22;6305;48.398;11.762;2023-02-04T14:40:40;6.20;76.10
12481;DHT22;6305;48.398;11.762;2023-02-04T14:43:08;6.10;77.30
12481;DHT22;6305;48.398;11.762;2023-02-04T14:45:36;6.00;77.20
12481;DHT22;6305;48.398;11.762;2023-02-04T14:48:05;5.80;78.30
12481;DHT22;6305;48.398;11.762;2023-02-04T14:50:32;5.70;80.00
12481;DHT22;6305;48.398;11.762;2023-02-04T14:53:00;5.50;81.00
12481;DHT22;6305;48.398;11.762;2023-02-04T14:55:27;5.40;82.80
12481;DHT22;6305;48.398;11.762;2023-02-04T14:57:54;5.40;83.80
12481;DHT22;6305;48.398;11.762;2023-02-04T15:00:21;5.30;86.10
12481;DHT22;6305;48.398;11.762;2023-02-04T15:02:48;5.30;87.50
12481;DHT22;6305;48.398;11.762;2023-02-04T15:05:17;5.30;89.50
12481;DHT22;6305;48.398;11.762;2023-02-04T15:07:44;5.30;90.10
12481;DHT22;6305;48.398;11.762;2023-02-04T15:10:11;5.40;89.70
12481;DHT22;6305;48.398;11.762;2023-02-04T15:12:38;5.80;92.80
12481;DHT22;6305;48.398;11.762;2023-02-04T15:15:06;7.50;95.20
12481;DHT22;6305;48.398;11.762;2023-02-04T15:17:33;9.30;85.90
12481;DHT22;6305;48.398;11.762;2023-02-04T15:20:00;10.40;68.10
12481;DHT22;6305;48.398;11.762;2023-02-04T15:22:29;11.60;64.00
12481;DHT22;6305;48.398;11.762;2023-02-04T15:24:56;12.50;57.10
12481;DHT22;6305;48.398;11.762;2023-02-04T15:27:23;12.40;52.50
12481;DHT22;6305;48.398;11.762;2023-02-04T15:29:50;11.90;50.80
12481;DHT22;6305;48.398;11.762;2023-02-04T15:32:17;10.70;51.20
12481;DHT22;6305;48.398;11.762;2023-02-04T15:34:44;9.40;54.20
12481;DHT22;6305;48.398;11.762;2023-02-04T15:37:11;8.00;56.40
12481;DHT22;6305;48.398;11.762;2023-02-04T15:39:40;6.80;59.20
12481;DHT22;6305;48.398;11.762;2023-02-04T15:42:08;5.80;63.40
12481;DHT22;6305;48.398;11.762;2023-02-04T15:44:35;5.00;69.80
12481;DHT22;6305;48.398;11.762;2023-02-04T15:47:02;4.50;78.20
12481;DHT22;6305;48.398;11.762;2023-02-04T15:49:29;4.00;85.70
12481;DHT22;6305;48.398;11.762;2023-02-04T15:51:56;3.70;92.50